createdAt,value
2022-09-26T00:00:14.591Z,8.29
2022-09-26T00:02:45.697Z,8.26
2022-09-26T00:05:16.429Z,8.24
2022-09-26T00:07:46.810Z,8.23
2022-09-26T00:10:17.352Z,8.21
2022-09-26T00:12:47.740Z,8.20
2022-09-26T00:15:18.135Z,8.19
2022-09-26T00:17:48.484Z,8.17
2022-09-26T00:20:18.948Z,8.16
2022-09-26T00:22:49.400Z,8.14
2022-09-26T00:25:20.487Z,8.12
2022-09-26T00:27:50.793Z,8.11
2022-09-26T00:30:21.171Z,8.10
2022-09-26T00:32:52.112Z,8.08
2022-09-26T00:35:22.521Z,8.06
2022-09-26T00:37:52.866Z,8.06
2022-09-26T00:40:27.986Z,8.05
2022-09-26T00:42:59.167Z,8.06
2022-09-26T00:45:33.257Z,8.06
2022-09-26T00:48:06.669Z,8.07
2022-09-26T00:50:41.374Z,8.09
2022-09-26T00:53:15.117Z,8.11
2022-09-26T00:55:49.592Z,8.12
2022-09-26T00:58:23.489Z,8.14
2022-09-26T01:00:54.987Z,8.16
2022-09-26T01:03:27.713Z,8.17
2022-09-26T01:06:00.259Z,8.18
2022-09-26T01:08:34.229Z,8.17
2022-09-26T01:11:05.902Z,8.16
2022-09-26T01:13:39.460Z,8.15
2022-09-26T01:16:10.348Z,8.13
2022-09-26T01:18:41.672Z,8.11
2022-09-26T01:21:30.429Z,8.10
2022-09-26T01:24:36.059Z,8.08
2022-09-26T01:27:44.886Z,8.06
2022-09-26T01:30:18.062Z,8.04
2022-09-26T01:33:25.608Z,8.02
2022-09-26T01:36:12.247Z,7.99
2022-09-26T01:38:53.747Z,7.97
2022-09-26T01:41:45.291Z,7.95
2022-09-26T01:44:28.128Z,7.92
2022-09-26T01:47:02.113Z,7.89
2022-09-26T01:49:37.540Z,7.86
2022-09-26T01:52:15.017Z,7.83
2022-09-26T01:54:54.289Z,7.80
2022-09-26T01:57:30.979Z,7.78
2022-09-26T02:00:05.170Z,7.76
2022-09-26T02:02:47.935Z,7.73
2022-09-26T02:05:32.585Z,7.70
2022-09-26T02:08:08.455Z,7.68
2022-09-26T02:10:45.041Z,7.67
2022-09-26T02:13:19.720Z,7.64
2022-09-26T02:15:58.897Z,7.62
2022-09-26T02:18:37.524Z,7.60
2022-09-26T02:21:15.711Z,7.59
2022-09-26T02:23:47.581Z,7.57
2022-09-26T02:26:18.833Z,7.55
2022-09-26T02:28:49.686Z,7.54
2022-09-26T02:31:24.624Z,7.52
2022-09-26T02:33:56.474Z,7.51
2022-09-26T02:36:27.451Z,7.49
2022-09-26T02:38:57.720Z,7.48
2022-09-26T02:41:53.615Z,7.47
2022-09-26T02:44:47.668Z,7.46
2022-09-26T02:47:36.594Z,7.46
2022-09-26T02:50:22.270Z,7.45
2022-09-26T02:53:06.378Z,7.44
2022-09-26T02:55:49.055Z,7.43
2022-09-26T02:58:36.021Z,7.43
2022-09-26T03:01:16.039Z,7.43
2022-09-26T03:03:52.192Z,7.42
2022-09-26T03:06:31.666Z,7.42
2022-09-26T03:09:04.485Z,7.42
2022-09-26T03:11:37.002Z,7.41
2022-09-26T03:14:08.638Z,7.42
2022-09-26T03:16:45.139Z,7.41
2022-09-26T03:19:26.846Z,7.40
2022-09-26T03:21:57.611Z,7.39
2022-09-26T03:24:28.368Z,7.39
2022-09-26T03:27:05.084Z,7.41
2022-09-26T03:29:39.485Z,7.40
2022-09-26T03:32:11.098Z,7.39
2022-09-26T03:34:41.868Z,7.37
2022-09-26T03:37:12.381Z,7.34
2022-09-26T03:39:42.904Z,7.30
2022-09-26T03:42:22.893Z,7.25
2022-09-26T03:44:53.647Z,7.20
2022-09-26T03:47:32.853Z,7.16
2022-09-26T03:50:03.930Z,7.12
2022-09-26T03:52:36.049Z,7.08
2022-09-26T03:55:05.804Z,7.04
2022-09-26T03:57:36.285Z,7.01
2022-09-26T04:00:17.766Z,6.99
2022-09-26T04:02:48.884Z,6.98
2022-09-26T04:05:34.545Z,6.97
2022-09-26T04:08:05.821Z,6.97
2022-09-26T04:10:37.218Z,6.97
2022-09-26T04:13:08.962Z,6.97
2022-09-26T04:15:40.433Z,6.97
2022-09-26T04:18:15.066Z,6.98
2022-09-26T04:20:45.576Z,6.99
2022-09-26T04:23:17.653Z,7.00
2022-09-26T04:25:48.511Z,7.00
2022-09-26T04:28:18.952Z,7.01
2022-09-26T04:30:50.327Z,7.00
2022-09-26T04:33:21.227Z,6.98
2022-09-26T04:36:09.432Z,6.96
2022-09-26T04:38:41.013Z,6.94
2022-09-26T04:41:15.361Z,6.90
2022-09-26T04:43:45.958Z,6.87
2022-09-26T04:46:22.217Z,6.83
2022-09-26T04:48:56.150Z,6.79
2022-09-26T04:51:28.715Z,6.77
2022-09-26T04:53:59.581Z,6.75
2022-09-26T04:56:32.043Z,6.75
2022-09-26T04:59:02.971Z,6.74
2022-09-26T05:01:40.954Z,6.73
2022-09-26T05:04:18.685Z,6.73
2022-09-26T05:06:49.840Z,6.72
2022-09-26T05:09:30.795Z,6.71
2022-09-26T05:12:17.261Z,6.69
2022-09-26T05:14:49.170Z,6.67
2022-09-26T05:17:24.352Z,6.66
2022-09-26T05:19:55.776Z,6.65
2022-09-26T05:22:35.518Z,6.65
2022-09-26T05:25:23.889Z,6.67
2022-09-26T05:27:54.434Z,6.69
2022-09-26T05:30:25.844Z,6.72
2022-09-26T05:32:58.303Z,6.75
2022-09-26T05:35:29.009Z,6.78
2022-09-26T05:38:03.355Z,6.83
2022-09-26T05:40:51.644Z,6.87
2022-09-26T05:43:22.785Z,6.91
2022-09-26T05:45:58.989Z,6.94
2022-09-26T05:48:32.291Z,6.97
2022-09-26T05:51:09.100Z,7.00
2022-09-26T05:53:43.189Z,7.03
2022-09-26T05:56:18.768Z,7.06
2022-09-26T05:59:12.045Z,7.09
2022-09-26T06:01:52.039Z,7.13
2022-09-26T06:04:31.606Z,7.18
2022-09-26T06:07:31.901Z,7.23
2022-09-26T06:10:06.400Z,7.28
2022-09-26T06:12:46.442Z,7.35
2022-09-26T06:15:19.685Z,7.43
2022-09-26T06:17:58.070Z,7.51
2022-09-26T06:20:28.511Z,7.61
2022-09-26T06:22:59.140Z,7.71
2022-09-26T06:25:30.347Z,7.80
2022-09-26T06:28:04.121Z,7.92
2022-09-26T06:30:34.762Z,8.03
2022-09-26T06:33:13.599Z,8.15
2022-09-26T06:36:13.930Z,8.30
2022-09-26T06:38:44.303Z,8.44
2022-09-26T06:41:19.563Z,8.59
2022-09-26T06:43:50.325Z,8.78
2022-09-26T06:46:23.529Z,8.97
2022-09-26T06:49:00.023Z,9.17
2022-09-26T06:51:44.967Z,9.37
2022-09-26T06:54:14.664Z,9.56
2022-09-26T06:56:45.075Z,9.74
2022-09-26T06:59:16.993Z,9.90
2022-09-26T07:02:12.605Z,10.06
2022-09-26T07:05:02.776Z,10.17
2022-09-26T07:07:46.736Z,10.24
2022-09-26T07:10:25.966Z,10.29
2022-09-26T07:13:08.105Z,10.30
2022-09-26T07:15:40.114Z,10.34
2022-09-26T07:18:33.717Z,10.36
2022-09-26T07:21:08.334Z,10.40
2022-09-26T07:23:57.145Z,10.45
2022-09-26T07:26:27.647Z,10.51
2022-09-26T07:28:57.496Z,10.56
2022-09-26T07:31:31.030Z,10.61
2022-09-26T07:34:25.184Z,10.66
2022-09-26T07:36:55.775Z,10.75
2022-09-26T07:39:27.335Z,10.82
2022-09-26T07:41:58.166Z,10.84
2022-09-26T07:47:36.931Z,10.86
2022-09-26T07:50:15.175Z,10.90
2022-09-26T07:53:04.509Z,10.95
2022-09-26T07:55:54.991Z,10.98
2022-09-26T07:58:43.930Z,11.04
2022-09-26T08:01:47.069Z,11.16
2022-09-26T08:04:51.353Z,11.26
2022-09-26T08:07:23.921Z,11.30
2022-09-26T08:10:07.690Z,11.30
2022-09-26T08:13:07.109Z,11.29
2022-09-26T08:15:45.486Z,11.27
2022-09-26T08:18:25.132Z,11.24
2022-09-26T08:20:55.569Z,11.24
2022-09-26T08:23:26.221Z,11.28
2022-09-26T08:26:23.986Z,11.33
2022-09-26T08:29:01.662Z,11.40
2022-09-26T08:31:33.548Z,11.45
2022-09-26T08:34:04.193Z,11.53
2022-09-26T08:36:35.965Z,11.66
2022-09-26T08:39:10.963Z,11.75
2022-09-26T08:42:18.119Z,11.79
2022-09-26T08:45:50.577Z,11.89
2022-09-26T08:48:53.281Z,12.02
2022-09-26T08:51:34.483Z,12.15
2022-09-26T08:54:12.244Z,12.32
2022-09-26T08:56:49.751Z,12.49
2022-09-26T08:59:29.847Z,12.60
2022-09-26T09:02:05.294Z,12.68
2022-09-26T09:04:57.614Z,12.72
2022-09-26T09:07:29.233Z,12.74
2022-09-26T09:10:02.320Z,12.76
2022-09-26T09:13:01.216Z,12.71
2022-09-26T09:16:01.133Z,12.70
2022-09-26T09:19:00.185Z,12.80
2022-09-26T09:22:16.406Z,12.91
2022-09-26T09:25:04.821Z,12.95
2022-09-26T09:27:54.438Z,12.97
2022-09-26T09:30:32.292Z,13.12
2022-09-26T09:33:22.183Z,13.19
2022-09-26T09:36:04.135Z,13.23
2022-09-26T09:38:43.665Z,13.33
2022-09-26T09:41:28.383Z,13.41
2022-09-26T09:44:03.956Z,13.47
2022-09-26T09:46:40.816Z,13.57
2022-09-26T09:49:21.219Z,13.69
2022-09-26T09:52:05.402Z,13.78
2022-09-26T09:54:50.258Z,13.85
2022-09-26T09:57:44.483Z,13.88
2022-09-26T10:00:18.703Z,13.83
2022-09-26T10:03:02.667Z,13.80
2022-09-26T10:05:42.627Z,13.86
2022-09-26T10:08:17.517Z,14.00
2022-09-26T10:11:23.208Z,14.23
2022-09-26T10:14:06.051Z,14.37
2022-09-26T10:17:18.873Z,14.43
2022-09-26T10:20:37.109Z,14.50
2022-09-26T10:23:19.320Z,14.60
2022-09-26T10:25:53.288Z,14.77
2022-09-26T10:28:35.836Z,14.88
2022-09-26T10:31:10.644Z,14.97
2022-09-26T10:34:09.705Z,15.00
2022-09-26T10:36:41.690Z,15.01
2022-09-26T10:39:38.784Z,14.95
2022-09-26T10:42:17.808Z,14.85
2022-09-26T10:44:50.537Z,14.76
2022-09-26T10:47:27.113Z,14.69
2022-09-26T10:50:19.404Z,14.69
2022-09-26T10:53:17.391Z,14.69
2022-09-26T10:55:57.609Z,14.66
2022-09-26T10:58:30.418Z,14.63
2022-09-26T11:01:07.180Z,14.63
2022-09-26T11:03:45.072Z,14.76
2022-09-26T11:06:33.988Z,14.95
2022-09-26T11:09:20.655Z,15.17
2022-09-26T11:12:29.251Z,15.32
2022-09-26T11:15:10.851Z,15.44
2022-09-26T11:17:49.090Z,15.71
2022-09-26T11:20:30.168Z,16.10
2022-09-26T11:23:12.255Z,16.50
2022-09-26T11:25:57.730Z,16.85
2022-09-26T11:28:36.569Z,16.73
2022-09-26T11:31:31.269Z,16.43
2022-09-26T11:34:26.986Z,16.29
2022-09-26T11:37:37.773Z,16.25
2022-09-26T11:40:21.882Z,16.14
2022-09-26T11:43:10.063Z,16.25
2022-09-26T11:45:54.275Z,16.27
2022-09-26T11:48:55.744Z,16.42
2022-09-26T11:52:02.177Z,16.60
2022-09-26T11:54:50.824Z,16.63
2022-09-26T11:57:35.649Z,16.62
2022-09-26T12:00:24.206Z,16.91
2022-09-26T12:03:17.367Z,17.10
2022-09-26T12:05:56.715Z,17.39
2022-09-26T12:08:47.674Z,17.34
2022-09-26T12:11:27.309Z,17.28
2022-09-26T12:14:05.812Z,16.99
2022-09-26T12:16:42.385Z,16.78
2022-09-26T12:19:21.496Z,16.74
2022-09-26T12:22:18.553Z,16.77
2022-09-26T12:24:58.837Z,16.96
2022-09-26T12:27:35.953Z,17.34
2022-09-26T12:30:13.102Z,17.73
2022-09-26T12:33:05.727Z,18.24
2022-09-26T12:35:48.046Z,18.14
2022-09-26T12:38:33.401Z,17.98
2022-09-26T12:41:19.993Z,18.21
2022-09-26T12:44:06.184Z,18.05
2022-09-26T12:47:00.071Z,17.98
2022-09-26T12:49:55.243Z,18.11
2022-09-26T12:52:41.324Z,17.85
2022-09-26T12:55:23.405Z,17.54
2022-09-26T12:58:09.541Z,17.16
2022-09-26T13:00:50.616Z,16.79
2022-09-26T13:03:52.041Z,16.53
2022-09-26T13:06:35.316Z,16.26
2022-09-26T13:09:21.784Z,15.97
2022-09-26T13:12:04.226Z,15.69
2022-09-26T13:14:50.809Z,15.50
2022-09-26T13:17:25.307Z,15.27
2022-09-26T13:20:01.480Z,14.99
2022-09-26T13:22:40.151Z,14.62
2022-09-26T13:25:19.036Z,14.17
2022-09-26T13:27:57.986Z,13.76
2022-09-26T13:30:35.591Z,13.47
2022-09-26T13:33:11.758Z,13.23
2022-09-26T13:35:45.303Z,13.03
2022-09-26T13:38:34.683Z,12.93
2022-09-26T13:41:17.979Z,12.82
2022-09-26T13:44:03.519Z,12.80
2022-09-26T13:46:51.064Z,12.80
2022-09-26T13:49:45.206Z,12.80
2022-09-26T13:52:27.620Z,12.77
2022-09-26T13:55:02.908Z,12.74
2022-09-26T13:57:39.680Z,12.72
2022-09-26T14:00:41.444Z,12.70
2022-09-26T14:03:45.897Z,12.69
2022-09-26T14:06:35.809Z,12.68
2022-09-26T14:09:40.582Z,12.67
2022-09-26T14:12:22.661Z,12.66
2022-09-26T14:15:17.341Z,12.64
2022-09-26T14:18:16.345Z,12.62
2022-09-26T14:21:01.640Z,12.60
2022-09-26T14:23:44.407Z,12.58
2022-09-26T14:26:22.045Z,12.59
2022-09-26T14:29:11.897Z,12.63
2022-09-26T14:31:43.949Z,12.68
2022-09-26T14:34:23.607Z,12.74
2022-09-26T14:37:03.587Z,12.80
2022-09-26T14:39:44.457Z,12.84
2022-09-26T14:42:23.857Z,12.86
2022-09-26T14:44:59.753Z,12.87
2022-09-26T14:47:41.199Z,12.88
2022-09-26T14:50:15.630Z,12.86
2022-09-26T14:52:54.382Z,12.84
2022-09-26T14:55:26.766Z,12.83
2022-09-26T14:58:30.492Z,12.84
2022-09-26T15:01:04.947Z,12.88
2022-09-26T15:03:36.968Z,12.95
2022-09-26T15:06:13.521Z,13.02
2022-09-26T15:08:44.185Z,13.11
2022-09-26T15:11:32.630Z,13.20
2022-09-26T15:14:12.954Z,13.36
2022-09-26T15:16:50.009Z,13.58
2022-09-26T15:19:26.086Z,13.74
2022-09-26T15:22:01.649Z,13.84
2022-09-26T15:24:34.485Z,13.90
2022-09-26T15:27:12.436Z,13.90
2022-09-26T15:29:47.520Z,13.85
2022-09-26T15:32:25.632Z,13.81
2022-09-26T15:34:57.719Z,13.75
2022-09-26T15:37:31.943Z,13.69
2022-09-26T15:40:16.800Z,13.64
2022-09-26T15:43:01.752Z,13.58
2022-09-26T15:45:34.268Z,13.52
2022-09-26T15:48:27.385Z,13.48
2022-09-26T15:51:01.560Z,13.43
2022-09-26T15:53:39.485Z,13.38
2022-09-26T15:56:14.291Z,13.35
2022-09-26T15:58:51.529Z,13.31
2022-09-26T16:01:25.697Z,13.29
2022-09-26T16:04:01.279Z,13.27
2022-09-26T16:06:35.097Z,13.24
2022-09-26T16:09:17.610Z,13.21
2022-09-26T16:11:51.826Z,13.19
2022-09-26T16:14:30.933Z,13.15
2022-09-26T16:17:12.914Z,13.14
2022-09-26T16:19:48.593Z,13.10
2022-09-26T16:22:44.928Z,13.09
2022-09-26T16:25:34.485Z,13.06
2022-09-26T16:28:45.090Z,13.03
2022-09-26T16:31:31.379Z,13.00
2022-09-26T16:34:02.417Z,12.96
2022-09-26T16:36:35.272Z,12.92
2022-09-26T16:39:08.973Z,12.88
2022-09-26T16:42:02.325Z,12.84
2022-09-26T16:44:37.556Z,12.80
2022-09-26T16:47:38.512Z,12.75
2022-09-26T16:50:29.732Z,12.71
2022-09-26T16:53:02.925Z,12.68
2022-09-26T16:55:37.472Z,12.68
2022-09-26T16:58:14.045Z,12.67
2022-09-26T17:01:02.449Z,12.67
2022-09-26T17:03:36.206Z,12.66
2022-09-26T17:06:07.520Z,12.65
2022-09-26T17:08:38.028Z,12.64
2022-09-26T17:11:31.079Z,12.64
2022-09-26T17:14:01.694Z,12.63
2022-09-26T17:16:34.347Z,12.63
2022-09-26T17:19:07.326Z,12.64
2022-09-26T17:21:38.665Z,12.64
2022-09-26T17:24:13.859Z,12.64
2022-09-26T17:26:53.154Z,12.63
2022-09-26T17:29:27.766Z,12.63
2022-09-26T17:32:00.203Z,12.64
2022-09-26T17:34:34.835Z,12.65
2022-09-26T17:37:09.991Z,12.67
2022-09-26T17:39:41.234Z,12.68
2022-09-26T17:42:15.550Z,12.69
2022-09-26T17:44:48.479Z,12.71
2022-09-26T17:47:20.372Z,12.72
2022-09-26T17:49:56.324Z,12.75
2022-09-26T17:52:31.283Z,12.76
2022-09-26T17:55:05.977Z,12.78
2022-09-26T17:57:41.534Z,12.77
2022-09-26T18:00:16.511Z,12.75
2022-09-26T18:02:50.300Z,12.73
2022-09-26T18:05:25.614Z,12.71
2022-09-26T18:08:01.150Z,12.69
2022-09-26T18:10:34.963Z,12.64
2022-09-26T18:13:13.308Z,12.53
2022-09-26T18:15:44.243Z,12.38
2022-09-26T18:18:18.085Z,12.22
2022-09-26T18:20:49.333Z,12.06
2022-09-26T18:23:20.758Z,11.91
2022-09-26T18:25:54.824Z,11.80
2022-09-26T18:28:26.703Z,11.68
2022-09-26T18:31:00.799Z,11.60
2022-09-26T18:33:37.164Z,11.50
2022-09-26T18:36:12.958Z,11.41
2022-09-26T18:38:43.703Z,11.34
2022-09-26T18:41:15.841Z,11.29
2022-09-26T18:43:50.897Z,11.24
2022-09-26T18:46:22.877Z,11.19
2022-09-26T18:48:56.691Z,11.14
2022-09-26T18:51:28.140Z,11.09
2022-09-26T18:53:57.134Z,11.05
2022-09-26T18:56:45.483Z,11.02
2022-09-26T18:59:16.852Z,10.98
2022-09-26T19:01:46.237Z,10.95
2022-09-26T19:04:21.431Z,10.93
2022-09-26T19:07:01.003Z,10.88
2022-09-26T19:09:35.137Z,10.85
2022-09-26T19:12:15.421Z,10.83
2022-09-26T19:14:46.450Z,10.81
2022-09-26T19:17:17.462Z,10.81
2022-09-26T19:19:48.783Z,10.80
2022-09-26T19:22:20.337Z,10.78
2022-09-26T19:24:54.871Z,10.76
2022-09-26T19:27:28.400Z,10.72
2022-09-26T19:30:02.787Z,10.70
2022-09-26T19:32:38.943Z,10.66
2022-09-26T19:35:18.626Z,10.61
2022-09-26T19:37:49.260Z,10.56
2022-09-26T19:40:22.118Z,10.52
2022-09-26T19:42:53.319Z,10.49
2022-09-26T19:45:24.479Z,10.43
2022-09-26T19:47:57.209Z,10.39
2022-09-26T19:50:29.140Z,10.35
2022-09-26T19:53:00.173Z,10.31
2022-09-26T19:55:32.486Z,10.24
2022-09-26T19:58:12.284Z,10.18
2022-09-26T20:00:44.643Z,10.10
2022-09-26T20:03:20.253Z,10.05
2022-09-26T20:05:51.799Z,9.99
2022-09-26T20:08:23.959Z,9.92
2022-09-26T20:10:55.755Z,9.88
2022-09-26T20:13:26.506Z,9.83
2022-09-26T20:15:58.130Z,9.79
2022-09-26T20:18:28.913Z,9.77
2022-09-26T20:20:59.821Z,9.73
2022-09-26T20:23:31.217Z,9.71
2022-09-26T20:26:00.261Z,9.69
2022-09-26T20:28:31.112Z,9.67
2022-09-26T20:31:01.750Z,9.61
2022-09-26T20:33:33.371Z,9.58
2022-09-26T20:36:06.754Z,9.56
2022-09-26T20:38:42.233Z,9.55
2022-09-26T20:41:19.560Z,9.54
2022-09-26T20:43:53.704Z,9.52
2022-09-26T20:46:24.378Z,9.50
2022-09-26T20:48:55.042Z,9.49
2022-09-26T20:51:28.250Z,9.47
2022-09-26T20:53:59.561Z,9.43
2022-09-26T20:56:30.706Z,9.39
2022-09-26T20:59:01.309Z,9.36
2022-09-26T21:01:32.084Z,9.33
2022-09-26T21:04:03.351Z,9.30
2022-09-26T21:06:37.287Z,9.27
2022-09-26T21:09:11.887Z,9.25
2022-09-26T21:11:42.703Z,9.20
2022-09-26T21:14:13.570Z,9.21
2022-09-26T21:16:47.831Z,9.21
2022-09-26T21:19:22.968Z,9.21
2022-09-26T21:21:57.623Z,9.20
2022-09-26T21:24:38.727Z,9.20
2022-09-26T21:27:12.826Z,9.19
2022-09-26T21:29:43.833Z,9.19
2022-09-26T21:32:20.489Z,9.19
2022-09-26T21:34:57.926Z,9.20
2022-09-26T21:37:28.711Z,9.20
2022-09-26T21:39:59.259Z,9.21
2022-09-26T21:42:30.026Z,9.21
2022-09-26T21:45:03.984Z,9.22
2022-09-26T21:47:36.610Z,9.23
2022-09-26T21:50:08.715Z,9.24
2022-09-26T21:52:43.398Z,9.24
2022-09-26T21:55:18.212Z,9.25
2022-09-26T21:57:52.132Z,9.25
2022-09-26T22:00:22.871Z,9.25
2022-09-26T22:02:55.108Z,9.25
2022-09-26T22:05:25.824Z,9.24
2022-09-26T22:07:57.434Z,9.22
2022-09-26T22:10:29.318Z,9.22
2022-09-26T22:13:00.361Z,9.23
2022-09-26T22:15:30.899Z,9.23
2022-09-26T22:18:01.489Z,9.23
2022-09-26T22:20:33.830Z,9.23
2022-09-26T22:23:04.451Z,9.24
2022-09-26T22:25:36.270Z,9.23
2022-09-26T22:28:08.492Z,9.22
2022-09-26T22:30:41.348Z,9.23
2022-09-26T22:33:13.322Z,9.23
2022-09-26T22:35:47.121Z,9.22
2022-09-26T22:38:18.399Z,9.21
2022-09-26T22:40:58.171Z,9.19
2022-09-26T22:43:29.088Z,9.19
2022-09-26T22:46:05.577Z,9.17
2022-09-26T22:48:37.617Z,9.16
2022-09-26T22:51:09.182Z,9.15
2022-09-26T22:53:40.988Z,9.15
2022-09-26T22:56:13.535Z,9.14
2022-09-26T22:58:47.320Z,9.15
2022-09-26T23:01:23.652Z,9.14
2022-09-26T23:03:54.455Z,9.15
2022-09-26T23:06:26.162Z,9.15
2022-09-26T23:08:56.934Z,9.16
2022-09-26T23:11:28.259Z,9.16
2022-09-26T23:13:58.933Z,9.17
2022-09-26T23:16:29.805Z,9.17
2022-09-26T23:19:00.866Z,9.17
2022-09-26T23:21:31.489Z,9.16
2022-09-26T23:24:02.743Z,9.15
2022-09-26T23:26:34.067Z,9.15
2022-09-26T23:29:03.093Z,9.14
2022-09-26T23:31:33.793Z,9.13
2022-09-26T23:34:04.805Z,9.12
2022-09-26T23:36:35.455Z,9.11
2022-09-26T23:39:06.057Z,9.11
2022-09-26T23:41:36.704Z,9.10
2022-09-26T23:44:07.257Z,9.10
2022-09-26T23:46:38.382Z,9.09
2022-09-26T23:49:08.993Z,9.09
2022-09-26T23:51:39.629Z,9.08
2022-09-26T23:54:11.005Z,9.09
2022-09-26T23:56:41.485Z,9.09
2022-09-26T23:59:11.950Z,9.08
